sensor_id;sensor_type;location;lat;lon;timestamp;P1;durP1;ratioP1;P2;durP2;ratioP2
19535;SDS011;9913;51.168;4.124;2022-09-16T00:01:39;1.20;;;0.80;;
19535;SDS011;9913;51.168;4.124;2022-09-16T00:04:08;3.37;;;0.90;;
19535;SDS011;9913;51.168;4.124;2022-09-16T00:06:36;3.50;;;1.13;;
19535;SDS011;9913;51.168;4.124;2022-09-16T00:09:06;2.60;;;1.10;;
19535;SDS011;9913;51.168;4.124;2022-09-16T00:11:34;5.30;;;1.10;;
19535;SDS011;9913;51.168;4.124;2022-09-16T00:14:03;1.77;;;1.00;;
19535;SDS011;9913;51.168;4.124;2022-09-16T00:16:31;2.87;;;0.90;;
19535;SDS011;9913;51.168;4.124;2022-09-16T00:19:00;2.33;;;0.87;;
19535;SDS011;9913;51.168;4.124;2022-09-16T00:21:29;2.43;;;0.97;;
19535;SDS011;9913;51.168;4.124;2022-09-16T00:23:58;3.57;;;1.37;;
19535;SDS011;9913;51.168;4.124;2022-09-16T00:26:28;2.27;;;1.23;;
19535;SDS011;9913;51.168;4.124;2022-09-16T00:28:56;1.80;;;0.80;;
19535;SDS011;9913;51.168;4.124;2022-09-16T00:31:25;2.93;;;1.10;;
19535;SDS011;9913;51.168;4.124;2022-09-16T00:33:53;5.50;;;1.40;;
19535;SDS011;9913;51.168;4.124;2022-09-16T00:36:21;3.50;;;1.13;;
19535;SDS011;9913;51.168;4.124;2022-09-16T00:38:50;2.63;;;0.87;;
19535;SDS011;9913;51.168;4.124;2022-09-16T00:41:21;3.80;;;1.10;;
19535;SDS011;9913;51.168;4.124;2022-09-16T00:43:54;2.23;;;0.80;;
19535;SDS011;9913;51.168;4.124;2022-09-16T00:46:25;4.17;;;0.90;;
19535;SDS011;9913;51.168;4.124;2022-09-16T00:48:59;4.37;;;1.00;;
19535;SDS011;9913;51.168;4.124;2022-09-16T00:51:32;3.03;;;0.77;;
19535;SDS011;9913;51.168;4.124;2022-09-16T00:54:01;2.63;;;0.70;;
19535;SDS011;9913;51.168;4.124;2022-09-16T00:56:36;2.50;;;0.87;;
19535;SDS011;9913;51.168;4.124;2022-09-16T00:59:10;1.63;;;0.83;;
19535;SDS011;9913;51.168;4.124;2022-09-16T01:01:42;2.07;;;1.20;;
19535;SDS011;9913;51.168;4.124;2022-09-16T01:04:12;4.27;;;0.97;;
19535;SDS011;9913;51.168;4.124;2022-09-16T01:06:44;2.93;;;0.80;;
19535;SDS011;9913;51.168;4.124;2022-09-16T01:09:12;6.30;;;0.93;;
19535;SDS011;9913;51.168;4.124;2022-09-16T01:11:41;1.77;;;1.00;;
19535;SDS011;9913;51.168;4.124;2022-09-16T01:14:10;3.00;;;0.90;;
19535;SDS011;9913;51.168;4.124;2022-09-16T01:17:02;3.00;;;1.20;;
19535;SDS011;9913;51.168;4.124;2022-09-16T01:19:45;3.60;;;0.87;;
19535;SDS011;9913;51.168;4.124;2022-09-16T01:22:35;2.70;;;1.00;;
19535;SDS011;9913;51.168;4.124;2022-09-16T01:25:16;2.27;;;0.90;;
19535;SDS011;9913;51.168;4.124;2022-09-16T01:27:58;2.37;;;0.87;;
19535;SDS011;9913;51.168;4.124;2022-09-16T01:30:52;3.17;;;1.17;;
19535;SDS011;9913;51.168;4.124;2022-09-16T01:33:32;2.53;;;1.30;;
19535;SDS011;9913;51.168;4.124;2022-09-16T01:36:08;5.10;;;0.97;;
19535;SDS011;9913;51.168;4.124;2022-09-16T01:38:51;3.53;;;1.13;;
19535;SDS011;9913;51.168;4.124;2022-09-16T01:41:29;2.60;;;1.10;;
19535;SDS011;9913;51.168;4.124;2022-09-16T01:44:08;5.07;;;1.20;;
19535;SDS011;9913;51.168;4.124;2022-09-16T01:46:47;2.00;;;1.07;;
19535;SDS011;9913;51.168;4.124;2022-09-16T01:49:21;2.90;;;0.83;;
19535;SDS011;9913;51.168;4.124;2022-09-16T01:51:57;2.83;;;1.10;;
19535;SDS011;9913;51.168;4.124;2022-09-16T01:54:36;3.47;;;0.90;;
19535;SDS011;9913;51.168;4.124;2022-09-16T01:57:10;2.47;;;1.10;;
19535;SDS011;9913;51.168;4.124;2022-09-16T01:59:45;3.40;;;1.00;;
19535;SDS011;9913;51.168;4.124;2022-09-16T02:02:20;3.10;;;1.20;;
19535;SDS011;9913;51.168;4.124;2022-09-16T02:04:54;2.80;;;1.00;;
19535;SDS011;9913;51.168;4.124;2022-09-16T02:07:24;1.83;;;0.93;;
19535;SDS011;9913;51.168;4.124;2022-09-16T02:09:57;2.30;;;1.00;;
19535;SDS011;9913;51.168;4.124;2022-09-16T02:12:33;5.83;;;0.90;;
19535;SDS011;9913;51.168;4.124;2022-09-16T02:15:04;5.90;;;1.30;;
19535;SDS011;9913;51.168;4.124;2022-09-16T02:17:37;1.60;;;1.00;;
19535;SDS011;9913;51.168;4.124;2022-09-16T02:20:09;2.97;;;1.10;;
19535;SDS011;9913;51.168;4.124;2022-09-16T02:22:43;2.57;;;1.07;;
19535;SDS011;9913;51.168;4.124;2022-09-16T02:25:15;2.80;;;0.77;;
19535;SDS011;9913;51.168;4.124;2022-09-16T02:27:46;2.70;;;0.90;;
19535;SDS011;9913;51.168;4.124;2022-09-16T02:30:16;3.43;;;1.10;;
19535;SDS011;9913;51.168;4.124;2022-09-16T02:32:49;3.53;;;1.20;;
19535;SDS011;9913;51.168;4.124;2022-09-16T02:35:22;3.57;;;1.47;;
19535;SDS011;9913;51.168;4.124;2022-09-16T02:37:54;2.47;;;1.23;;
19535;SDS011;9913;51.168;4.124;2022-09-16T02:40:26;3.83;;;1.13;;
19535;SDS011;9913;51.168;4.124;2022-09-16T02:42:59;1.53;;;1.00;;
19535;SDS011;9913;51.168;4.124;2022-09-16T02:45:32;1.90;;;1.30;;
19535;SDS011;9913;51.168;4.124;2022-09-16T02:48:12;3.63;;;1.37;;
19535;SDS011;9913;51.168;4.124;2022-09-16T02:50:49;2.87;;;1.07;;
19535;SDS011;9913;51.168;4.124;2022-09-16T02:53:26;3.63;;;1.13;;
19535;SDS011;9913;51.168;4.124;2022-09-16T02:56:04;5.50;;;1.37;;
19535;SDS011;9913;51.168;4.124;2022-09-16T02:58:38;2.23;;;1.30;;
19535;SDS011;9913;51.168;4.124;2022-09-16T03:01:07;4.30;;;1.37;;
19535;SDS011;9913;51.168;4.124;2022-09-16T03:03:41;4.53;;;1.20;;
19535;SDS011;9913;51.168;4.124;2022-09-16T03:06:12;2.57;;;1.00;;
19535;SDS011;9913;51.168;4.124;2022-09-16T03:08:43;3.57;;;1.00;;
19535;SDS011;9913;51.168;4.124;2022-09-16T03:11:24;3.53;;;1.00;;
19535;SDS011;9913;51.168;4.124;2022-09-16T03:14:10;3.17;;;1.00;;
19535;SDS011;9913;51.168;4.124;2022-09-16T03:16:52;3.40;;;0.90;;
19535;SDS011;9913;51.168;4.124;2022-09-16T03:19:30;2.97;;;0.90;;
19535;SDS011;9913;51.168;4.124;2022-09-16T03:22:08;2.33;;;0.83;;
19535;SDS011;9913;51.168;4.124;2022-09-16T03:24:46;3.53;;;0.70;;
19535;SDS011;9913;51.168;4.124;2022-09-16T03:27:22;2.80;;;1.00;;
19535;SDS011;9913;51.168;4.124;2022-09-16T03:29:59;3.73;;;0.70;;
19535;SDS011;9913;51.168;4.124;2022-09-16T03:32:31;4.63;;;0.80;;
19535;SDS011;9913;51.168;4.124;2022-09-16T03:35:07;3.93;;;1.07;;
19535;SDS011;9913;51.168;4.124;2022-09-16T03:37:38;0.50;;;0.47;;
19535;SDS011;9913;51.168;4.124;2022-09-16T03:40:09;4.77;;;1.20;;
19535;SDS011;9913;51.168;4.124;2022-09-16T03:42:41;12.03;;;1.00;;
19535;SDS011;9913;51.168;4.124;2022-09-16T03:45:12;3.50;;;0.90;;
19535;SDS011;9913;51.168;4.124;2022-09-16T03:47:42;2.03;;;0.80;;
19535;SDS011;9913;51.168;4.124;2022-09-16T03:50:13;2.23;;;1.23;;
19535;SDS011;9913;51.168;4.124;2022-09-16T03:52:42;1.53;;;0.70;;
19535;SDS011;9913;51.168;4.124;2022-09-16T03:55:10;2.13;;;1.00;;
19535;SDS011;9913;51.168;4.124;2022-09-16T03:57:39;2.70;;;1.10;;
19535;SDS011;9913;51.168;4.124;2022-09-16T04:00:08;3.27;;;0.70;;
19535;SDS011;9913;51.168;4.124;2022-09-16T04:02:37;1.63;;;0.80;;
19535;SDS011;9913;51.168;4.124;2022-09-16T04:05:06;5.20;;;0.90;;
19535;SDS011;9913;51.168;4.124;2022-09-16T04:07:37;2.60;;;0.90;;
19535;SDS011;9913;51.168;4.124;2022-09-16T04:10:06;2.77;;;1.23;;
19535;SDS011;9913;51.168;4.124;2022-09-16T04:12:34;4.23;;;0.90;;
19535;SDS011;9913;51.168;4.124;2022-09-16T04:15:03;1.60;;;0.70;;
19535;SDS011;9913;51.168;4.124;2022-09-16T04:17:32;2.60;;;1.17;;
19535;SDS011;9913;51.168;4.124;2022-09-16T04:20:00;1.77;;;0.60;;
19535;SDS011;9913;51.168;4.124;2022-09-16T04:22:29;3.73;;;0.93;;
19535;SDS011;9913;51.168;4.124;2022-09-16T04:24:59;3.33;;;0.80;;
19535;SDS011;9913;51.168;4.124;2022-09-16T04:27:28;1.97;;;1.10;;
19535;SDS011;9913;51.168;4.124;2022-09-16T04:29:56;4.53;;;1.40;;
19535;SDS011;9913;51.168;4.124;2022-09-16T04:32:24;1.37;;;0.90;;
19535;SDS011;9913;51.168;4.124;2022-09-16T04:34:52;3.03;;;0.83;;
19535;SDS011;9913;51.168;4.124;2022-09-16T04:37:21;2.03;;;0.83;;
19535;SDS011;9913;51.168;4.124;2022-09-16T04:39:50;1.63;;;1.10;;
19535;SDS011;9913;51.168;4.124;2022-09-16T04:42:20;4.73;;;1.43;;
19535;SDS011;9913;51.168;4.124;2022-09-16T04:44:48;5.77;;;1.20;;
19535;SDS011;9913;51.168;4.124;2022-09-16T04:47:16;3.93;;;1.10;;
19535;SDS011;9913;51.168;4.124;2022-09-16T04:49:45;5.63;;;1.33;;
19535;SDS011;9913;51.168;4.124;2022-09-16T04:52:13;2.33;;;0.80;;
19535;SDS011;9913;51.168;4.124;2022-09-16T04:54:41;3.60;;;1.73;;
19535;SDS011;9913;51.168;4.124;2022-09-16T04:57:10;3.97;;;0.93;;
19535;SDS011;9913;51.168;4.124;2022-09-16T04:59:39;2.63;;;1.10;;
19535;SDS011;9913;51.168;4.124;2022-09-16T05:02:08;3.50;;;0.73;;
19535;SDS011;9913;51.168;4.124;2022-09-16T05:04:36;3.37;;;0.80;;
19535;SDS011;9913;51.168;4.124;2022-09-16T05:07:04;2.80;;;0.80;;
19535;SDS011;9913;51.168;4.124;2022-09-16T05:09:33;0.93;;;0.63;;
19535;SDS011;9913;51.168;4.124;2022-09-16T05:12:03;3.67;;;0.70;;
19535;SDS011;9913;51.168;4.124;2022-09-16T05:14:34;5.63;;;0.90;;
19535;SDS011;9913;51.168;4.124;2022-09-16T05:17:04;2.03;;;1.00;;
19535;SDS011;9913;51.168;4.124;2022-09-16T05:19:33;2.73;;;0.90;;
19535;SDS011;9913;51.168;4.124;2022-09-16T05:22:01;6.40;;;1.57;;
19535;SDS011;9913;51.168;4.124;2022-09-16T05:24:32;4.13;;;1.20;;
19535;SDS011;9913;51.168;4.124;2022-09-16T05:27:02;3.23;;;1.07;;
19535;SDS011;9913;51.168;4.124;2022-09-16T05:29:30;2.30;;;0.93;;
19535;SDS011;9913;51.168;4.124;2022-09-16T05:31:59;1.73;;;0.90;;
19535;SDS011;9913;51.168;4.124;2022-09-16T05:34:29;3.90;;;1.90;;
19535;SDS011;9913;51.168;4.124;2022-09-16T05:36:57;2.67;;;0.80;;
19535;SDS011;9913;51.168;4.124;2022-09-16T05:39:26;2.20;;;1.00;;
19535;SDS011;9913;51.168;4.124;2022-09-16T05:41:55;3.10;;;1.20;;
19535;SDS011;9913;51.168;4.124;2022-09-16T05:44:25;3.17;;;1.10;;
19535;SDS011;9913;51.168;4.124;2022-09-16T05:46:54;3.20;;;0.90;;
19535;SDS011;9913;51.168;4.124;2022-09-16T05:49:22;3.90;;;1.07;;
19535;SDS011;9913;51.168;4.124;2022-09-16T05:51:52;4.77;;;0.90;;
19535;SDS011;9913;51.168;4.124;2022-09-16T05:54:21;5.53;;;1.10;;
19535;SDS011;9913;51.168;4.124;2022-09-16T05:56:51;3.87;;;1.23;;
19535;SDS011;9913;51.168;4.124;2022-09-16T05:59:19;2.30;;;0.80;;
19535;SDS011;9913;51.168;4.124;2022-09-16T06:01:49;1.27;;;0.63;;
19535;SDS011;9913;51.168;4.124;2022-09-16T06:04:17;2.83;;;0.90;;
19535;SDS011;9913;51.168;4.124;2022-09-16T06:06:46;2.27;;;1.07;;
19535;SDS011;9913;51.168;4.124;2022-09-16T06:09:16;2.93;;;1.20;;
19535;SDS011;9913;51.168;4.124;2022-09-16T06:11:47;7.07;;;1.50;;
19535;SDS011;9913;51.168;4.124;2022-09-16T06:14:17;5.83;;;1.30;;
19535;SDS011;9913;51.168;4.124;2022-09-16T06:16:48;4.97;;;1.30;;
19535;SDS011;9913;51.168;4.124;2022-09-16T06:19:16;3.83;;;1.57;;
19535;SDS011;9913;51.168;4.124;2022-09-16T06:21:46;4.37;;;1.37;;
19535;SDS011;9913;51.168;4.124;2022-09-16T06:24:16;6.20;;;1.53;;
19535;SDS011;9913;51.168;4.124;2022-09-16T06:26:46;2.27;;;1.20;;
19535;SDS011;9913;51.168;4.124;2022-09-16T06:29:15;3.13;;;1.33;;
19535;SDS011;9913;51.168;4.124;2022-09-16T06:31:43;2.97;;;0.97;;
19535;SDS011;9913;51.168;4.124;2022-09-16T06:34:12;2.37;;;1.33;;
19535;SDS011;9913;51.168;4.124;2022-09-16T06:36:42;4.67;;;1.67;;
19535;SDS011;9913;51.168;4.124;2022-09-16T06:39:11;4.43;;;1.27;;
19535;SDS011;9913;51.168;4.124;2022-09-16T06:41:42;1.97;;;1.00;;
19535;SDS011;9913;51.168;4.124;2022-09-16T06:44:11;1.70;;;0.80;;
19535;SDS011;9913;51.168;4.124;2022-09-16T06:46:39;1.80;;;1.00;;
19535;SDS011;9913;51.168;4.124;2022-09-16T06:49:07;1.27;;;1.07;;
19535;SDS011;9913;51.168;4.124;2022-09-16T06:51:38;2.90;;;0.77;;
19535;SDS011;9913;51.168;4.124;2022-09-16T06:54:07;4.10;;;0.97;;
19535;SDS011;9913;51.168;4.124;2022-09-16T06:56:36;5.20;;;1.10;;
19535;SDS011;9913;51.168;4.124;2022-09-16T06:59:08;2.20;;;0.93;;
19535;SDS011;9913;51.168;4.124;2022-09-16T07:01:39;3.77;;;1.17;;
19535;SDS011;9913;51.168;4.124;2022-09-16T07:04:08;2.97;;;1.10;;
19535;SDS011;9913;51.168;4.124;2022-09-16T07:06:39;6.03;;;0.97;;
19535;SDS011;9913;51.168;4.124;2022-09-16T07:09:28;2.67;;;1.00;;
19535;SDS011;9913;51.168;4.124;2022-09-16T07:11:56;4.23;;;1.30;;
19535;SDS011;9913;51.168;4.124;2022-09-16T07:14:27;3.63;;;1.10;;
19535;SDS011;9913;51.168;4.124;2022-09-16T07:16:58;2.10;;;1.07;;
19535;SDS011;9913;51.168;4.124;2022-09-16T07:19:27;4.77;;;1.07;;
19535;SDS011;9913;51.168;4.124;2022-09-16T07:21:55;2.33;;;0.97;;
19535;SDS011;9913;51.168;4.124;2022-09-16T07:24:24;2.00;;;0.90;;
19535;SDS011;9913;51.168;4.124;2022-09-16T07:26:52;4.37;;;1.20;;
19535;SDS011;9913;51.168;4.124;2022-09-16T07:29:20;1.90;;;0.90;;
19535;SDS011;9913;51.168;4.124;2022-09-16T07:31:50;8.53;;;1.23;;
19535;SDS011;9913;51.168;4.124;2022-09-16T07:34:21;3.30;;;0.97;;
19535;SDS011;9913;51.168;4.124;2022-09-16T07:36:49;3.57;;;1.00;;
19535;SDS011;9913;51.168;4.124;2022-09-16T07:39:18;2.67;;;1.20;;
19535;SDS011;9913;51.168;4.124;2022-09-16T07:41:47;4.20;;;1.80;;
19535;SDS011;9913;51.168;4.124;2022-09-16T07:44:16;2.80;;;1.83;;
19535;SDS011;9913;51.168;4.124;2022-09-16T07:46:46;2.57;;;1.27;;
19535;SDS011;9913;51.168;4.124;2022-09-16T07:49:18;2.90;;;0.93;;
19535;SDS011;9913;51.168;4.124;2022-09-16T07:51:46;2.10;;;1.00;;
19535;SDS011;9913;51.168;4.124;2022-09-16T07:54:15;3.83;;;1.47;;
19535;SDS011;9913;51.168;4.124;2022-09-16T07:56:45;5.40;;;1.30;;
19535;SDS011;9913;51.168;4.124;2022-09-16T07:59:14;6.67;;;1.50;;
19535;SDS011;9913;51.168;4.124;2022-09-16T08:01:45;5.83;;;1.50;;
19535;SDS011;9913;51.168;4.124;2022-09-16T08:04:15;2.23;;;0.97;;
19535;SDS011;9913;51.168;4.124;2022-09-16T08:06:45;3.27;;;1.10;;
19535;SDS011;9913;51.168;4.124;2022-09-16T08:09:14;7.03;;;1.20;;
19535;SDS011;9913;51.168;4.124;2022-09-16T08:12:03;2.67;;;1.27;;
19535;SDS011;9913;51.168;4.124;2022-09-16T08:14:33;4.23;;;1.20;;
19535;SDS011;9913;51.168;4.124;2022-09-16T08:17:02;3.33;;;1.00;;
19535;SDS011;9913;51.168;4.124;2022-09-16T08:19:30;2.37;;;1.00;;
19535;SDS011;9913;51.168;4.124;2022-09-16T08:22:00;3.57;;;1.00;;
19535;SDS011;9913;51.168;4.124;2022-09-16T08:24:28;3.93;;;1.17;;
19535;SDS011;9913;51.168;4.124;2022-09-16T08:26:57;3.37;;;1.00;;
19535;SDS011;9913;51.168;4.124;2022-09-16T08:29:25;3.20;;;1.47;;
19535;SDS011;9913;51.168;4.124;2022-09-16T08:31:53;4.30;;;1.00;;
19535;SDS011;9913;51.168;4.124;2022-09-16T08:34:22;3.10;;;0.80;;
19535;SDS011;9913;51.168;4.124;2022-09-16T08:36:50;3.60;;;0.90;;
19535;SDS011;9913;51.168;4.124;2022-09-16T08:39:20;2.93;;;1.00;;
19535;SDS011;9913;51.168;4.124;2022-09-16T08:41:55;4.03;;;0.80;;
19535;SDS011;9913;51.168;4.124;2022-09-16T08:44:34;4.87;;;1.00;;
19535;SDS011;9913;51.168;4.124;2022-09-16T08:47:10;4.13;;;1.03;;
19535;SDS011;9913;51.168;4.124;2022-09-16T08:49:48;4.20;;;1.10;;
19535;SDS011;9913;51.168;4.124;2022-09-16T08:52:22;2.23;;;0.87;;
19535;SDS011;9913;51.168;4.124;2022-09-16T08:54:58;5.90;;;1.00;;
19535;SDS011;9913;51.168;4.124;2022-09-16T08:57:29;2.50;;;0.90;;
19535;SDS011;9913;51.168;4.124;2022-09-16T09:00:03;2.20;;;0.83;;
19535;SDS011;9913;51.168;4.124;2022-09-16T09:02:37;3.67;;;1.20;;
19535;SDS011;9913;51.168;4.124;2022-09-16T09:05:13;2.60;;;0.80;;
19535;SDS011;9913;51.168;4.124;2022-09-16T09:07:48;1.03;;;0.57;;
19535;SDS011;9913;51.168;4.124;2022-09-16T09:10:24;2.17;;;0.80;;
19535;SDS011;9913;51.168;4.124;2022-09-16T09:13:00;3.63;;;0.80;;
19535;SDS011;9913;51.168;4.124;2022-09-16T09:15:42;2.73;;;0.57;;
19535;SDS011;9913;51.168;4.124;2022-09-16T09:18:18;1.63;;;0.33;;
19535;SDS011;9913;51.168;4.124;2022-09-16T09:20:56;2.93;;;0.93;;
19535;SDS011;9913;51.168;4.124;2022-09-16T09:23:40;1.87;;;0.50;;
19535;SDS011;9913;51.168;4.124;2022-09-16T09:26:24;1.30;;;0.50;;
19535;SDS011;9913;51.168;4.124;2022-09-16T09:31:52;2.87;;;0.50;;
19535;SDS011;9913;51.168;4.124;2022-09-16T09:34:30;1.37;;;0.57;;
19535;SDS011;9913;51.168;4.124;2022-09-16T09:37:18;3.07;;;0.70;;
19535;SDS011;9913;51.168;4.124;2022-09-16T09:39:59;1.27;;;0.70;;
19535;SDS011;9913;51.168;4.124;2022-09-16T09:42:37;3.73;;;0.60;;
19535;SDS011;9913;51.168;4.124;2022-09-16T09:45:13;2.97;;;0.60;;
19535;SDS011;9913;51.168;4.124;2022-09-16T09:47:47;2.13;;;0.80;;
19535;SDS011;9913;51.168;4.124;2022-09-16T09:50:21;2.03;;;0.80;;
19535;SDS011;9913;51.168;4.124;2022-09-16T09:52:54;1.67;;;0.90;;
19535;SDS011;9913;51.168;4.124;2022-09-16T09:55:30;1.33;;;0.80;;
19535;SDS011;9913;51.168;4.124;2022-09-16T09:58:03;2.80;;;1.07;;
19535;SDS011;9913;51.168;4.124;2022-09-16T10:00:40;4.27;;;1.07;;
19535;SDS011;9913;51.168;4.124;2022-09-16T10:03:09;4.33;;;1.20;;
19535;SDS011;9913;51.168;4.124;2022-09-16T10:05:42;2.27;;;1.23;;
19535;SDS011;9913;51.168;4.124;2022-09-16T10:08:13;1.80;;;1.27;;
19535;SDS011;9913;51.168;4.124;2022-09-16T10:10:49;5.63;;;1.33;;
19535;SDS011;9913;51.168;4.124;2022-09-16T10:13:20;1.80;;;0.80;;
19535;SDS011;9913;51.168;4.124;2022-09-16T10:15:51;1.73;;;1.20;;
19535;SDS011;9913;51.168;4.124;2022-09-16T10:18:23;2.93;;;0.90;;
19535;SDS011;9913;51.168;4.124;2022-09-16T10:20:57;2.70;;;1.20;;
19535;SDS011;9913;51.168;4.124;2022-09-16T10:23:28;2.87;;;0.93;;
19535;SDS011;9913;51.168;4.124;2022-09-16T10:26:05;2.70;;;0.90;;
19535;SDS011;9913;51.168;4.124;2022-09-16T10:28:53;1.60;;;0.70;;
19535;SDS011;9913;51.168;4.124;2022-09-16T10:31:25;3.17;;;0.90;;
19535;SDS011;9913;51.168;4.124;2022-09-16T10:34:00;3.20;;;0.90;;
19535;SDS011;9913;51.168;4.124;2022-09-16T10:36:32;2.43;;;1.00;;
19535;SDS011;9913;51.168;4.124;2022-09-16T10:39:02;2.07;;;0.80;;
19535;SDS011;9913;51.168;4.124;2022-09-16T10:41:32;2.80;;;1.10;;
19535;SDS011;9913;51.168;4.124;2022-09-16T10:44:05;5.37;;;1.83;;
19535;SDS011;9913;51.168;4.124;2022-09-16T10:46:49;2.03;;;1.10;;
19535;SDS011;9913;51.168;4.124;2022-09-16T10:49:24;4.00;;;1.10;;
19535;SDS011;9913;51.168;4.124;2022-09-16T10:54:45;2.60;;;1.13;;
19535;SDS011;9913;51.168;4.124;2022-09-16T10:57:18;1.70;;;0.90;;
19535;SDS011;9913;51.168;4.124;2022-09-16T10:59:56;5.60;;;0.90;;
19535;SDS011;9913;51.168;4.124;2022-09-16T11:02:30;3.10;;;0.87;;
19535;SDS011;9913;51.168;4.124;2022-09-16T11:05:24;1.83;;;0.70;;
19535;SDS011;9913;51.168;4.124;2022-09-16T11:07:59;5.00;;;0.80;;
19535;SDS011;9913;51.168;4.124;2022-09-16T11:10:39;5.60;;;0.77;;
19535;SDS011;9913;51.168;4.124;2022-09-16T11:13:19;1.60;;;0.73;;
19535;SDS011;9913;51.168;4.124;2022-09-16T11:16:08;4.40;;;0.80;;
19535;SDS011;9913;51.168;4.124;2022-09-16T11:18:57;5.80;;;1.20;;
19535;SDS011;9913;51.168;4.124;2022-09-16T11:21:32;1.15;;;0.60;;
19535;SDS011;9913;51.168;4.124;2022-09-16T11:24:24;4.60;;;0.80;;
19535;SDS011;9913;51.168;4.124;2022-09-16T11:27:05;2.73;;;0.90;;
19535;SDS011;9913;51.168;4.124;2022-09-16T11:29:48;6.10;;;0.93;;
19535;SDS011;9913;51.168;4.124;2022-09-16T11:32:29;2.37;;;0.60;;
19535;SDS011;9913;51.168;4.124;2022-09-16T11:35:20;5.13;;;0.90;;
19535;SDS011;9913;51.168;4.124;2022-09-16T11:37:57;3.10;;;0.82;;
19535;SDS011;9913;51.168;4.124;2022-09-16T11:40:31;3.70;;;0.82;;
19535;SDS011;9913;51.168;4.124;2022-09-16T11:43:12;3.55;;;0.60;;
19535;SDS011;9913;51.168;4.124;2022-09-16T11:46:00;3.80;;;0.90;;
19535;SDS011;9913;51.168;4.124;2022-09-16T11:48:40;2.90;;;0.67;;
19535;SDS011;9913;51.168;4.124;2022-09-16T11:51:24;2.93;;;0.90;;
19535;SDS011;9913;51.168;4.124;2022-09-16T11:54:06;5.67;;;1.03;;
19535;SDS011;9913;51.168;4.124;2022-09-16T11:56:45;7.03;;;1.10;;
19535;SDS011;9913;51.168;4.124;2022-09-16T11:59:17;6.77;;;1.53;;
19535;SDS011;9913;51.168;4.124;2022-09-16T12:01:52;3.50;;;1.03;;
19535;SDS011;9913;51.168;4.124;2022-09-16T12:04:27;3.63;;;0.87;;
19535;SDS011;9913;51.168;4.124;2022-09-16T12:07:05;5.03;;;0.80;;
19535;SDS011;9913;51.168;4.124;2022-09-16T12:09:40;1.63;;;0.67;;
19535;SDS011;9913;51.168;4.124;2022-09-16T12:12:13;3.50;;;0.90;;
19535;SDS011;9913;51.168;4.124;2022-09-16T12:14:45;3.37;;;0.87;;
19535;SDS011;9913;51.168;4.124;2022-09-16T12:17:19;3.10;;;1.00;;
19535;SDS011;9913;51.168;4.124;2022-09-16T12:19:51;8.23;;;1.00;;
19535;SDS011;9913;51.168;4.124;2022-09-16T12:22:25;3.10;;;0.80;;
19535;SDS011;9913;51.168;4.124;2022-09-16T12:24:57;3.63;;;0.70;;
19535;SDS011;9913;51.168;4.124;2022-09-16T12:27:36;2.20;;;0.70;;
19535;SDS011;9913;51.168;4.124;2022-09-16T12:30:12;3.17;;;0.80;;
19535;SDS011;9913;51.168;4.124;2022-09-16T12:32:51;2.08;;;0.77;;
19535;SDS011;9913;51.168;4.124;2022-09-16T12:35:27;1.50;;;0.55;;
19535;SDS011;9913;51.168;4.124;2022-09-16T12:37:59;1.30;;;0.73;;
19535;SDS011;9913;51.168;4.124;2022-09-16T12:40:35;1.83;;;0.50;;
19535;SDS011;9913;51.168;4.124;2022-09-16T12:43:24;1.87;;;0.50;;
19535;SDS011;9913;51.168;4.124;2022-09-16T12:46:25;1.63;;;0.50;;
19535;SDS011;9913;51.168;4.124;2022-09-16T12:49:22;1.20;;;0.40;;
19535;SDS011;9913;51.168;4.124;2022-09-16T12:52:18;0.77;;;0.40;;
19535;SDS011;9913;51.168;4.124;2022-09-16T12:55:06;1.60;;;0.40;;
19535;SDS011;9913;51.168;4.124;2022-09-16T12:57:56;0.30;;;0.30;;
19535;SDS011;9913;51.168;4.124;2022-09-16T13:00:38;1.70;;;0.40;;
19535;SDS011;9913;51.168;4.124;2022-09-16T13:03:17;0.87;;;0.57;;
19535;SDS011;9913;51.168;4.124;2022-09-16T13:05:48;0.70;;;0.40;;
19535;SDS011;9913;51.168;4.124;2022-09-16T13:08:21;2.77;;;0.40;;
19535;SDS011;9913;51.168;4.124;2022-09-16T13:10:54;0.50;;;0.43;;
19535;SDS011;9913;51.168;4.124;2022-09-16T13:13:45;0.30;;;0.30;;
19535;SDS011;9913;51.168;4.124;2022-09-16T13:16:25;0.47;;;0.30;;
19535;SDS011;9913;51.168;4.124;2022-09-16T13:19:05;1.13;;;0.40;;
19535;SDS011;9913;51.168;4.124;2022-09-16T13:21:46;0.43;;;0.40;;
19535;SDS011;9913;51.168;4.124;2022-09-16T13:24:19;0.30;;;0.30;;
19535;SDS011;9913;51.168;4.124;2022-09-16T13:26:50;0.73;;;0.33;;
19535;SDS011;9913;51.168;4.124;2022-09-16T13:29:27;2.60;;;0.30;;
19535;SDS011;9913;51.168;4.124;2022-09-16T13:32:26;1.00;;;0.30;;
19535;SDS011;9913;51.168;4.124;2022-09-16T13:35:04;0.30;;;0.20;;
19535;SDS011;9913;51.168;4.124;2022-09-16T13:37:49;2.10;;;0.60;;
19535;SDS011;9913;51.168;4.124;2022-09-16T13:40:22;1.50;;;0.40;;
19535;SDS011;9913;51.168;4.124;2022-09-16T13:43:02;2.43;;;0.43;;
19535;SDS011;9913;51.168;4.124;2022-09-16T13:45:40;0.87;;;0.30;;
19535;SDS011;9913;51.168;4.124;2022-09-16T13:48:10;0.77;;;0.30;;
19535;SDS011;9913;51.168;4.124;2022-09-16T13:50:41;2.67;;;0.37;;
19535;SDS011;9913;51.168;4.124;2022-09-16T13:53:17;1.80;;;0.50;;
19535;SDS011;9913;51.168;4.124;2022-09-16T13:55:59;1.47;;;0.40;;
19535;SDS011;9913;51.168;4.124;2022-09-16T13:58:35;1.10;;;0.70;;
19535;SDS011;9913;51.168;4.124;2022-09-16T14:01:09;1.03;;;0.50;;
19535;SDS011;9913;51.168;4.124;2022-09-16T14:03:44;1.00;;;0.50;;
19535;SDS011;9913;51.168;4.124;2022-09-16T14:06:34;0.60;;;0.40;;
19535;SDS011;9913;51.168;4.124;2022-09-16T14:09:18;1.00;;;0.50;;
19535;SDS011;9913;51.168;4.124;2022-09-16T14:11:55;4.90;;;0.57;;
19535;SDS011;9913;51.168;4.124;2022-09-16T14:14:30;3.10;;;0.50;;
19535;SDS011;9913;51.168;4.124;2022-09-16T14:17:14;1.83;;;0.53;;
19535;SDS011;9913;51.168;4.124;2022-09-16T14:19:45;3.37;;;0.63;;
19535;SDS011;9913;51.168;4.124;2022-09-16T14:22:17;1.10;;;0.50;;
19535;SDS011;9913;51.168;4.124;2022-09-16T14:24:47;1.47;;;0.40;;
19535;SDS011;9913;51.168;4.124;2022-09-16T14:27:34;1.57;;;0.50;;
19535;SDS011;9913;51.168;4.124;2022-09-16T14:30:08;0.40;;;0.40;;
19535;SDS011;9913;51.168;4.124;2022-09-16T14:32:42;0.67;;;0.40;;
19535;SDS011;9913;51.168;4.124;2022-09-16T14:35:14;1.63;;;0.50;;
19535;SDS011;9913;51.168;4.124;2022-09-16T14:37:46;1.40;;;0.47;;
19535;SDS011;9913;51.168;4.124;2022-09-16T14:40:19;1.10;;;0.47;;
19535;SDS011;9913;51.168;4.124;2022-09-16T14:42:52;0.90;;;0.40;;
19535;SDS011;9913;51.168;4.124;2022-09-16T14:45:23;0.97;;;0.30;;
19535;SDS011;9913;51.168;4.124;2022-09-16T14:47:51;0.83;;;0.50;;
19535;SDS011;9913;51.168;4.124;2022-09-16T14:50:22;1.07;;;0.50;;
19535;SDS011;9913;51.168;4.124;2022-09-16T14:52:54;1.40;;;1.07;;
19535;SDS011;9913;51.168;4.124;2022-09-16T14:55:25;0.90;;;0.60;;
19535;SDS011;9913;51.168;4.124;2022-09-16T14:57:57;2.20;;;0.70;;
19535;SDS011;9913;51.168;4.124;2022-09-16T15:00:27;1.20;;;0.60;;
19535;SDS011;9913;51.168;4.124;2022-09-16T15:02:59;2.73;;;0.67;;
19535;SDS011;9913;51.168;4.124;2022-09-16T15:05:32;3.87;;;0.83;;
19535;SDS011;9913;51.168;4.124;2022-09-16T15:08:05;3.80;;;0.77;;
19535;SDS011;9913;51.168;4.124;2022-09-16T15:10:40;1.23;;;0.50;;
19535;SDS011;9913;51.168;4.124;2022-09-16T15:13:20;3.87;;;0.90;;
19535;SDS011;9913;51.168;4.124;2022-09-16T15:15:51;2.70;;;0.80;;
19535;SDS011;9913;51.168;4.124;2022-09-16T15:18:22;1.93;;;0.60;;
19535;SDS011;9913;51.168;4.124;2022-09-16T15:20:58;2.90;;;1.00;;
19535;SDS011;9913;51.168;4.124;2022-09-16T15:23:29;6.30;;;0.90;;
19535;SDS011;9913;51.168;4.124;2022-09-16T15:26:04;4.77;;;1.20;;
19535;SDS011;9913;51.168;4.124;2022-09-16T15:28:49;3.40;;;1.07;;
19535;SDS011;9913;51.168;4.124;2022-09-16T15:31:32;2.83;;;0.70;;
19535;SDS011;9913;51.168;4.124;2022-09-16T15:34:03;3.97;;;1.13;;
19535;SDS011;9913;51.168;4.124;2022-09-16T15:36:46;1.60;;;0.60;;
19535;SDS011;9913;51.168;4.124;2022-09-16T15:39:23;4.03;;;0.70;;
19535;SDS011;9913;51.168;4.124;2022-09-16T15:42:08;3.40;;;0.60;;
19535;SDS011;9913;51.168;4.124;2022-09-16T15:44:43;3.50;;;0.80;;
19535;SDS011;9913;51.168;4.124;2022-09-16T15:47:15;2.50;;;0.83;;